sensor_id;sensor_type;location;lat;lon;timestamp;pressure;altitude;pressure_sealevel;temperature;humidity
44127;BME280;29786;50.798;7.302;2023-05-20T00:02:29;99770;;;11.55;97.03
44127;BME280;29786;50.798;7.302;2023-05-20T00:08:39;99770;;;11.51;97.46
44127;BME280;29786;50.798;7.302;2023-05-20T00:13:36;99770;;;11.34;99.06
44127;BME280;29786;50.798;7.302;2023-05-20T00:18:33;99760;;;11.27;100
44127;BME280;29786;50.798;7.302;2023-05-20T00:23:29;99760;;;11.23;100
44127;BME280;29786;50.798;7.302;2023-05-20T00:29:40;99760;;;11.23;100
44127;BME280;29786;50.798;7.302;2023-05-20T00:34:37;99750;;;11.25;100
44127;BME280;29786;50.798;7.302;2023-05-20T00:39:33;99760;;;11.14;100
44127;BME280;29786;50.798;7.302;2023-05-20T00:44:29;99740;;;11.12;100
44127;BME280;29786;50.798;7.302;2023-05-20T00:50:40;99740;;;11.11;100
44127;BME280;29786;50.798;7.302;2023-05-20T00:55:36;99740;;;11.01;100
44127;BME280;29786;50.798;7.302;2023-05-20T01:00:33;99740;;;11;100
44127;BME280;29786;50.798;7.302;2023-05-20T01:05:29;99730;;;10.86;100
44127;BME280;29786;50.798;7.302;2023-05-20T01:11:43;99730;;;10.88;100
44127;BME280;29786;50.798;7.302;2023-05-20T01:16:37;99730;;;10.91;100
44127;BME280;29786;50.798;7.302;2023-05-20T01:21:33;99730;;;10.8;100
44127;BME280;29786;50.798;7.302;2023-05-20T01:26:30;99720;;;10.71;100
44127;BME280;29786;50.798;7.302;2023-05-20T01:32:42;99720;;;10.7;100
44127;BME280;29786;50.798;7.302;2023-05-20T01:37:38;99710;;;10.75;100
44127;BME280;29786;50.798;7.302;2023-05-20T01:42:34;99710;;;10.7;100
44127;BME280;29786;50.798;7.302;2023-05-20T01:47:30;99710;;;10.66;100
44127;BME280;29786;50.798;7.302;2023-05-20T01:53:41;99710;;;10.64;100
44127;BME280;29786;50.798;7.302;2023-05-20T01:58:37;99700;;;10.62;100
44127;BME280;29786;50.798;7.302;2023-05-20T02:03:34;99700;;;10.53;100
44127;BME280;29786;50.798;7.302;2023-05-20T02:06:02;99700;;;10.52;100
44127;BME280;29786;50.798;7.302;2023-05-20T02:14:42;99700;;;10.44;100
44127;BME280;29786;50.798;7.302;2023-05-20T02:19:38;99700;;;10.52;100
44127;BME280;29786;50.798;7.302;2023-05-20T02:24:34;99700;;;10.48;100
44127;BME280;29786;50.798;7.302;2023-05-20T02:29:31;99700;;;10.52;100
44127;BME280;29786;50.798;7.302;2023-05-20T02:35:41;99700;;;10.47;100
44127;BME280;29786;50.798;7.302;2023-05-20T02:40:38;99690;;;10.64;100
44127;BME280;29786;50.798;7.302;2023-05-20T02:45:34;99690;;;10.43;100
44127;BME280;29786;50.798;7.302;2023-05-20T02:50:31;99690;;;10.4;100
44127;BME280;29786;50.798;7.302;2023-05-20T02:56:41;99690;;;10.38;100
44127;BME280;29786;50.798;7.302;2023-05-20T03:01:38;99690;;;10.21;100
44127;BME280;29786;50.798;7.302;2023-05-20T03:06:35;99690;;;10.18;100
44127;BME280;29786;50.798;7.302;2023-05-20T03:11:31;99680;;;10.25;100
44127;BME280;29786;50.798;7.302;2023-05-20T03:17:42;99680;;;10.25;100
44127;BME280;29786;50.798;7.302;2023-05-20T03:22:38;99680;;;10.25;100
44127;BME280;29786;50.798;7.302;2023-05-20T03:27:35;99690;;;10.16;100
44127;BME280;29786;50.798;7.302;2023-05-20T03:32:31;99680;;;10.21;100
44127;BME280;29786;50.798;7.302;2023-05-20T03:38:42;99680;;;10.18;100
44127;BME280;29786;50.798;7.302;2023-05-20T03:43:39;99680;;;10.14;100
44127;BME280;29786;50.798;7.302;2023-05-20T03:48:35;99680;;;10.2;100
44127;BME280;29786;50.798;7.302;2023-05-20T03:53:32;99680;;;10.14;100
44127;BME280;29786;50.798;7.302;2023-05-20T03:58:28;99680;;;10.2;100
44127;BME280;29786;50.798;7.302;2023-05-20T04:04:39;99680;;;10.21;100
44127;BME280;29786;50.798;7.302;2023-05-20T04:09:36;99660;;;10.14;100
44127;BME280;29786;50.798;7.302;2023-05-20T04:14:32;99680;;;10.41;100
44127;BME280;29786;50.798;7.302;2023-05-20T04:19:28;99680;;;10.48;100
44127;BME280;29786;50.798;7.302;2023-05-20T04:30:36;99670;;;10.93;100
44127;BME280;29786;50.798;7.302;2023-05-20T04:35:32;99690;;;11.31;100
44127;BME280;29786;50.798;7.302;2023-05-20T04:41:43;99690;;;11.3;100
44127;BME280;29786;50.798;7.302;2023-05-20T04:46:39;99690;;;11.38;100
44127;BME280;29786;50.798;7.302;2023-05-20T04:51:36;99670;;;11.56;100
44127;BME280;29786;50.798;7.302;2023-05-20T04:56:32;99690;;;11.83;100
44127;BME280;29786;50.798;7.302;2023-05-20T05:01:29;99680;;;11.95;100
44127;BME280;29786;50.798;7.302;2023-05-20T05:07:40;99680;;;12.07;100
44127;BME280;29786;50.798;7.302;2023-05-20T05:12:36;99680;;;12.09;100
44127;BME280;29786;50.798;7.302;2023-05-20T05:17:33;99670;;;12.16;100
44127;BME280;29786;50.798;7.302;2023-05-20T05:22:29;99660;;;12.3;100
44127;BME280;29786;50.798;7.302;2023-05-20T05:28:40;99660;;;12.32;100
44127;BME280;29786;50.798;7.302;2023-05-20T05:33:36;99660;;;12.6;100
44127;BME280;29786;50.798;7.302;2023-05-20T05:38:33;99650;;;12.85;100
44127;BME280;29786;50.798;7.302;2023-05-20T05:43:29;99650;;;12.95;100
44127;BME280;29786;50.798;7.302;2023-05-20T05:49:40;99660;;;13.04;100
44127;BME280;29786;50.798;7.302;2023-05-20T05:54:37;99660;;;13.57;100
44127;BME280;29786;50.798;7.302;2023-05-20T05:59:33;99650;;;13.68;98.36
44127;BME280;29786;50.798;7.302;2023-05-20T06:04:30;99650;;;13.93;96.35
44127;BME280;29786;50.798;7.302;2023-05-20T06:10:40;99640;;;13.98;95.22
44127;BME280;29786;50.798;7.302;2023-05-20T06:15:38;99640;;;14.08;95.84
44127;BME280;29786;50.798;7.302;2023-05-20T06:20:33;99640;;;14.05;97.82
44127;BME280;29786;50.798;7.302;2023-05-20T06:25:30;99640;;;14.24;96.41
44127;BME280;29786;50.798;7.302;2023-05-20T06:31:41;99650;;;14.52;93.21
44127;BME280;29786;50.798;7.302;2023-05-20T06:36:37;99640;;;14.85;92.59
44127;BME280;29786;50.798;7.302;2023-05-20T06:41:34;99640;;;15.09;91.31
44127;BME280;29786;50.798;7.302;2023-05-20T06:46:31;99640;;;15.15;90.33
44127;BME280;29786;50.798;7.302;2023-05-20T06:52:41;99630;;;15.24;88.82
44127;BME280;29786;50.798;7.302;2023-05-20T06:57:37;99630;;;15.56;86.69
44127;BME280;29786;50.798;7.302;2023-05-20T07:02:34;99630;;;15.54;86.29
44127;BME280;29786;50.798;7.302;2023-05-20T07:07:30;99630;;;15.79;84.83
44127;BME280;29786;50.798;7.302;2023-05-20T07:13:41;99620;;;16.04;85.55
44127;BME280;29786;50.798;7.302;2023-05-20T07:18:38;99620;;;16.36;83.96
44127;BME280;29786;50.798;7.302;2023-05-20T07:23:34;99610;;;16.53;80.67
44127;BME280;29786;50.798;7.302;2023-05-20T07:28:31;99620;;;16.41;81.7
44127;BME280;29786;50.798;7.302;2023-05-20T07:34:41;99610;;;16.69;79.5
44127;BME280;29786;50.798;7.302;2023-05-20T07:35:56;99610;;;16.69;81.14
44127;BME280;29786;50.798;7.302;2023-05-20T07:39:38;99610;;;16.7;79.43
44127;BME280;29786;50.798;7.302;2023-05-20T07:44:34;99600;;;16.95;79.66
44127;BME280;29786;50.798;7.302;2023-05-20T07:49:31;99600;;;17.12;80.11
44127;BME280;29786;50.798;7.302;2023-05-20T07:55:42;99590;;;17.53;76.14
44127;BME280;29786;50.798;7.302;2023-05-20T08:00:38;99590;;;18.25;72.82
44127;BME280;29786;50.798;7.302;2023-05-20T08:05:35;99580;;;18.08;71.02
44127;BME280;29786;50.798;7.302;2023-05-20T08:10:32;99580;;;18.2;73.55
44127;BME280;29786;50.798;7.302;2023-05-20T08:20:33;99580;;;19.62;66.42
44127;BME280;29786;50.798;7.302;2023-05-20T08:25:29;99580;;;19.68;64.9
44127;BME280;29786;50.798;7.302;2023-05-20T08:31:40;99580;;;20.01;64.04
44127;BME280;29786;50.798;7.302;2023-05-20T08:36:36;99570;;;20.35;62.27
44127;BME280;29786;50.798;7.302;2023-05-20T08:41:33;99580;;;20.26;62.72
44127;BME280;29786;50.798;7.302;2023-05-20T08:52:43;99580;;;20.69;63.32
44127;BME280;29786;50.798;7.302;2023-05-20T08:57:37;99560;;;20.81;59.15
44127;BME280;29786;50.798;7.302;2023-05-20T09:02:36;99560;;;21.17;58.2
44127;BME280;29786;50.798;7.302;2023-05-20T09:07:30;99570;;;21.16;58.05
44127;BME280;29786;50.798;7.302;2023-05-20T09:13:40;99570;;;20.64;59.18
44127;BME280;29786;50.798;7.302;2023-05-20T09:18:37;99570;;;21.06;57.12
44127;BME280;29786;50.798;7.302;2023-05-20T09:23:37;99560;;;20.93;56.86
44127;BME280;29786;50.798;7.302;2023-05-20T09:28:30;99560;;;21.61;55.9
44127;BME280;29786;50.798;7.302;2023-05-20T09:34:41;99560;;;21.48;56.29
44127;BME280;29786;50.798;7.302;2023-05-20T09:39:42;99560;;;21.47;55.78
44127;BME280;29786;50.798;7.302;2023-05-20T09:44:34;99560;;;21.38;54.72
44127;BME280;29786;50.798;7.302;2023-05-20T09:49:30;99570;;;20.83;55.9
44127;BME280;29786;50.798;7.302;2023-05-20T09:55:41;99560;;;20.71;57.37
44127;BME280;29786;50.798;7.302;2023-05-20T10:00:37;99560;;;21.15;57.17
44127;BME280;29786;50.798;7.302;2023-05-20T10:05:35;99560;;;21.35;55.79
44127;BME280;29786;50.798;7.302;2023-05-20T10:17:54;99560;;;21.15;55.79
44127;BME280;29786;50.798;7.302;2023-05-20T10:21:38;99560;;;21.55;54.93
44127;BME280;29786;50.798;7.302;2023-05-20T10:26:35;99550;;;21.67;54.34
44127;BME280;29786;50.798;7.302;2023-05-20T10:31:31;99550;;;21.81;54.45
44127;BME280;29786;50.798;7.302;2023-05-20T10:37:42;99550;;;21.93;54.53
44127;BME280;29786;50.798;7.302;2023-05-20T10:42:38;99540;;;22.39;54.49
44127;BME280;29786;50.798;7.302;2023-05-20T10:47:34;99540;;;22.63;53.65
44127;BME280;29786;50.798;7.302;2023-05-20T10:52:32;99530;;;22.46;52.52
44127;BME280;29786;50.798;7.302;2023-05-20T10:58:42;99530;;;22.6;53.38
44127;BME280;29786;50.798;7.302;2023-05-20T11:03:39;99530;;;22.82;53.9
44127;BME280;29786;50.798;7.302;2023-05-20T11:08:35;99530;;;22.43;52.86
44127;BME280;29786;50.798;7.302;2023-05-20T11:13:32;99530;;;22.36;54.09
44127;BME280;29786;50.798;7.302;2023-05-20T11:18:28;99530;;;21.94;54.86
44127;BME280;29786;50.798;7.302;2023-05-20T11:24:39;99530;;;20.82;56.9
44127;BME280;29786;50.798;7.302;2023-05-20T11:29:35;99520;;;20.8;58.14
44127;BME280;29786;50.798;7.302;2023-05-20T11:34:33;99520;;;21.14;56.85
44127;BME280;29786;50.798;7.302;2023-05-20T11:39:28;99510;;;21.11;56.47
44127;BME280;29786;50.798;7.302;2023-05-20T11:45:40;99510;;;21.76;55.2
44127;BME280;29786;50.798;7.302;2023-05-20T11:50:37;99490;;;21.22;56.74
44127;BME280;29786;50.798;7.302;2023-05-20T11:55:32;99500;;;22.37;53.88
44127;BME280;29786;50.798;7.302;2023-05-20T12:00:28;99490;;;22.92;53.16
44127;BME280;29786;50.798;7.302;2023-05-20T12:06:39;99490;;;22.9;53.19
44127;BME280;29786;50.798;7.302;2023-05-20T12:11:36;99470;;;23.25;51.56
44127;BME280;29786;50.798;7.302;2023-05-20T12:16:33;99480;;;23.44;51.29
44127;BME280;29786;50.798;7.302;2023-05-20T12:21:29;99490;;;24.42;50.68
44127;BME280;29786;50.798;7.302;2023-05-20T12:27:40;99480;;;23.38;49.8
44127;BME280;29786;50.798;7.302;2023-05-20T12:32:36;99470;;;21.81;54.39
44127;BME280;29786;50.798;7.302;2023-05-20T12:37:32;99480;;;21.2;55.19
44127;BME280;29786;50.798;7.302;2023-05-20T12:42:29;99470;;;21.05;55.92
44127;BME280;29786;50.798;7.302;2023-05-20T12:48:39;99460;;;21.78;54.89
44127;BME280;29786;50.798;7.302;2023-05-20T12:58:33;99460;;;24.36;49.09
44127;BME280;29786;50.798;7.302;2023-05-20T13:01:01;99460;;;25.09;48.17
44127;BME280;29786;50.798;7.302;2023-05-20T13:03:29;99460;;;25.71;46.42
44127;BME280;29786;50.798;7.302;2023-05-20T13:09:40;99450;;;29.1;40.63
44127;BME280;29786;50.798;7.302;2023-05-20T13:14:36;99440;;;27.83;40.59
44127;BME280;29786;50.798;7.302;2023-05-20T13:19:33;99430;;;24.87;46.1
44127;BME280;29786;50.798;7.302;2023-05-20T13:30:40;99430;;;28.52;40.4
44127;BME280;29786;50.798;7.302;2023-05-20T13:35:37;99430;;;29.21;38.99
44127;BME280;29786;50.798;7.302;2023-05-20T13:40:33;99420;;;26.87;41.03
44127;BME280;29786;50.798;7.302;2023-05-20T13:45:30;99410;;;26.4;43.06
44127;BME280;29786;50.798;7.302;2023-05-20T13:51:40;99400;;;27.64;39.91
44127;BME280;29786;50.798;7.302;2023-05-20T13:56:37;99410;;;25.31;43.66
44127;BME280;29786;50.798;7.302;2023-05-20T14:01:34;99400;;;27.46;41.09
44127;BME280;29786;50.798;7.302;2023-05-20T14:06:30;99400;;;26.05;42.17
44127;BME280;29786;50.798;7.302;2023-05-20T14:12:41;99400;;;24.56;45.45
44127;BME280;29786;50.798;7.302;2023-05-20T14:17:37;99400;;;25.6;42.71
44127;BME280;29786;50.798;7.302;2023-05-20T14:22:34;99400;;;24.57;46.08
44127;BME280;29786;50.798;7.302;2023-05-20T14:27:30;99390;;;24.08;46.13
44127;BME280;29786;50.798;7.302;2023-05-20T14:33:41;99390;;;23.32;47.12
44127;BME280;29786;50.798;7.302;2023-05-20T14:38:38;99390;;;22.64;49.76
44127;BME280;29786;50.798;7.302;2023-05-20T14:43:34;99380;;;28.08;39.49
44127;BME280;29786;50.798;7.302;2023-05-20T14:48:30;99390;;;24.11;45.27
44127;BME280;29786;50.798;7.302;2023-05-20T14:54:41;99370;;;27.96;39.9
44127;BME280;29786;50.798;7.302;2023-05-20T14:59:38;99360;;;29.25;37.49
44127;BME280;29786;50.798;7.302;2023-05-20T15:04:34;99370;;;26.19;41.62
44127;BME280;29786;50.798;7.302;2023-05-20T15:09:31;99380;;;22.92;47.57
44127;BME280;29786;50.798;7.302;2023-05-20T15:15:42;99380;;;21.2;52.02
44127;BME280;29786;50.798;7.302;2023-05-20T15:20:38;99370;;;21.42;52.72
44127;BME280;29786;50.798;7.302;2023-05-20T15:25:34;99380;;;21.66;50.66
44127;BME280;29786;50.798;7.302;2023-05-20T15:30:31;99380;;;21.8;51.42
44127;BME280;29786;50.798;7.302;2023-05-20T15:36:42;99380;;;21.65;51.35
44127;BME280;29786;50.798;7.302;2023-05-20T15:41:38;99370;;;20.92;53.03
44127;BME280;29786;50.798;7.302;2023-05-20T15:46:35;99380;;;20.98;53.84
44127;BME280;29786;50.798;7.302;2023-05-20T15:51:31;99380;;;21.48;51.85
44127;BME280;29786;50.798;7.302;2023-05-20T15:57:42;99380;;;21.15;52.62
44127;BME280;29786;50.798;7.302;2023-05-20T16:02:38;99380;;;20.68;53.43
44127;BME280;29786;50.798;7.302;2023-05-20T16:07:35;99370;;;20.06;56.12
44127;BME280;29786;50.798;7.302;2023-05-20T16:12:32;99360;;;20.41;56.14
44127;BME280;29786;50.798;7.302;2023-05-20T16:18:42;99360;;;20.37;55.31
44127;BME280;29786;50.798;7.302;2023-05-20T16:23:39;99360;;;20.56;56.77
44127;BME280;29786;50.798;7.302;2023-05-20T16:28:35;99350;;;21.12;54.63
44127;BME280;29786;50.798;7.302;2023-05-20T16:33:32;99360;;;21.84;52.42
44127;BME280;29786;50.798;7.302;2023-05-20T16:38:28;99360;;;20.43;56.14
44127;BME280;29786;50.798;7.302;2023-05-20T16:44:39;99370;;;20.11;57.71
44127;BME280;29786;50.798;7.302;2023-05-20T16:49:36;99340;;;20.1;57.06
44127;BME280;29786;50.798;7.302;2023-05-20T16:54:32;99360;;;20.6;56.74
44127;BME280;29786;50.798;7.302;2023-05-20T16:59:29;99370;;;20.46;57.66
44127;BME280;29786;50.798;7.302;2023-05-20T17:05:39;99380;;;22.17;53.01
44127;BME280;29786;50.798;7.302;2023-05-20T17:10:36;99360;;;21.74;53.54
44127;BME280;29786;50.798;7.302;2023-05-20T17:15:33;99380;;;20.48;57.16
44127;BME280;29786;50.798;7.302;2023-05-20T17:20:29;99370;;;19.52;60.19
44127;BME280;29786;50.798;7.302;2023-05-20T17:26:40;99370;;;18.89;64.61
44127;BME280;29786;50.798;7.302;2023-05-20T17:31:36;99370;;;19.03;64.02
44127;BME280;29786;50.798;7.302;2023-05-20T17:36:33;99380;;;19.2;63.95
44127;BME280;29786;50.798;7.302;2023-05-20T17:41:29;99380;;;19.58;63.65
44127;BME280;29786;50.798;7.302;2023-05-20T17:47:40;99380;;;20.37;60.65
44127;BME280;29786;50.798;7.302;2023-05-20T17:52:36;99380;;;20.18;61.14
44127;BME280;29786;50.798;7.302;2023-05-20T17:57:33;99370;;;19.75;62.06
44127;BME280;29786;50.798;7.302;2023-05-20T18:08:40;99390;;;19.32;64.64
44127;BME280;29786;50.798;7.302;2023-05-20T18:13:37;99380;;;18.86;66.49
44127;BME280;29786;50.798;7.302;2023-05-20T18:18:33;99400;;;18.79;68.72
44127;BME280;29786;50.798;7.302;2023-05-20T18:23:30;99400;;;18.53;69.56
44127;BME280;29786;50.798;7.302;2023-05-20T18:29:40;99400;;;18.37;70.06
44127;BME280;29786;50.798;7.302;2023-05-20T18:34:38;99400;;;18.04;73.88
44127;BME280;29786;50.798;7.302;2023-05-20T18:39:33;99390;;;18.21;73
44127;BME280;29786;50.798;7.302;2023-05-20T18:44:30;99400;;;18.2;74.48
44127;BME280;29786;50.798;7.302;2023-05-20T18:49:26;99400;;;18.04;74.82
44127;BME280;29786;50.798;7.302;2023-05-20T18:50:41;99400;;;17.73;77.95
44127;BME280;29786;50.798;7.302;2023-05-20T18:55:37;99400;;;17.52;80.33
44127;BME280;29786;50.798;7.302;2023-05-20T19:00:34;99400;;;17.15;84.28
44127;BME280;29786;50.798;7.302;2023-05-20T19:05:30;99400;;;16.78;89.56
44127;BME280;29786;50.798;7.302;2023-05-20T19:11:41;99390;;;16.66;90.32
44127;BME280;29786;50.798;7.302;2023-05-20T19:16:38;99400;;;16.19;95.85
44127;BME280;29786;50.798;7.302;2023-05-20T19:21:34;99400;;;15.93;98.64
44127;BME280;29786;50.798;7.302;2023-05-20T19:32:41;99410;;;15.72;100
44127;BME280;29786;50.798;7.302;2023-05-20T19:37:38;99420;;;15.5;100
44127;BME280;29786;50.798;7.302;2023-05-20T19:42:34;99420;;;15.33;100
44127;BME280;29786;50.798;7.302;2023-05-20T19:47:31;99420;;;15.24;100
44127;BME280;29786;50.798;7.302;2023-05-20T19:53:42;99420;;;15.18;100
44127;BME280;29786;50.798;7.302;2023-05-20T19:58:38;99420;;;15.2;100
44127;BME280;29786;50.798;7.302;2023-05-20T20:03:34;99420;;;15.14;100
44127;BME280;29786;50.798;7.302;2023-05-20T20:08:31;99420;;;15.15;100
44127;BME280;29786;50.798;7.302;2023-05-20T20:14:42;99420;;;15.18;100
44127;BME280;29786;50.798;7.302;2023-05-20T20:19:38;99420;;;15.03;100
44127;BME280;29786;50.798;7.302;2023-05-20T20:24:35;99410;;;14.92;100
44127;BME280;29786;50.798;7.302;2023-05-20T20:29:31;99400;;;14.75;100
44127;BME280;29786;50.798;7.302;2023-05-20T20:35:42;99410;;;14.85;100
44127;BME280;29786;50.798;7.302;2023-05-20T20:39:33;99400;;;14.78;100
44127;BME280;29786;50.798;7.302;2023-05-20T20:44:29;99390;;;14.7;100
44127;BME280;29786;50.798;7.302;2023-05-20T20:50:40;99400;;;14.34;100
44127;BME280;29786;50.798;7.302;2023-05-20T21:00:33;99390;;;14.34;100
44127;BME280;29786;50.798;7.302;2023-05-20T21:05:29;99390;;;14.21;100
44127;BME280;29786;50.798;7.302;2023-05-20T21:11:40;99380;;;14.4;100
44127;BME280;29786;50.798;7.302;2023-05-20T21:16:37;99380;;;14.33;100
44127;BME280;29786;50.798;7.302;2023-05-20T21:21:33;99370;;;14.44;100
44127;BME280;29786;50.798;7.302;2023-05-20T21:26:30;99370;;;14.32;100
44127;BME280;29786;50.798;7.302;2023-05-20T21:32:40;99370;;;14.38;100
44127;BME280;29786;50.798;7.302;2023-05-20T21:37:37;99370;;;14.53;100
44127;BME280;29786;50.798;7.302;2023-05-20T21:42:33;99360;;;14.45;100
44127;BME280;29786;50.798;7.302;2023-05-20T21:47:30;99360;;;14.29;100
44127;BME280;29786;50.798;7.302;2023-05-20T21:53:40;99360;;;14.41;100
44127;BME280;29786;50.798;7.302;2023-05-20T21:58:37;99350;;;14.27;100
44127;BME280;29786;50.798;7.302;2023-05-20T22:03:34;99350;;;14.25;100
44127;BME280;29786;50.798;7.302;2023-05-20T22:08:30;99340;;;14.18;100
44127;BME280;29786;50.798;7.302;2023-05-20T22:14:41;99350;;;14.33;100
44127;BME280;29786;50.798;7.302;2023-05-20T22:19:37;99340;;;14.11;100
44127;BME280;29786;50.798;7.302;2023-05-20T22:24:34;99340;;;14.33;100
44127;BME280;29786;50.798;7.302;2023-05-20T22:29:30;99330;;;14.33;100
44127;BME280;29786;50.798;7.302;2023-05-20T22:35:41;99330;;;14.37;100
44127;BME280;29786;50.798;7.302;2023-05-20T22:40:38;99320;;;14.14;100
44127;BME280;29786;50.798;7.302;2023-05-20T22:45:34;99320;;;14.23;100
44127;BME280;29786;50.798;7.302;2023-05-20T22:50:31;99320;;;13.96;100
44127;BME280;29786;50.798;7.302;2023-05-20T22:56:41;99300;;;14.21;100
44127;BME280;29786;50.798;7.302;2023-05-20T23:01:38;99300;;;14.02;100
44127;BME280;29786;50.798;7.302;2023-05-20T23:06:34;99300;;;14.05;100
44127;BME280;29786;50.798;7.302;2023-05-20T23:11:31;99290;;;13.89;100
44127;BME280;29786;50.798;7.302;2023-05-20T23:17:42;99280;;;13.82;100
44127;BME280;29786;50.798;7.302;2023-05-20T23:22:39;99280;;;13.94;100
44127;BME280;29786;50.798;7.302;2023-05-20T23:27:35;99280;;;13.83;100
44127;BME280;29786;50.798;7.302;2023-05-20T23:32:31;99270;;;13.81;100
44127;BME280;29786;50.798;7.302;2023-05-20T23:38:42;99260;;;13.59;100
44127;BME280;29786;50.798;7.302;2023-05-20T23:43:38;99270;;;13.69;100
44127;BME280;29786;50.798;7.302;2023-05-20T23:44:53;99260;;;13.68;100
44127;BME280;29786;50.798;7.302;2023-05-20T23:48:35;99260;;;13.75;100
44127;BME280;29786;50.798;7.302;2023-05-20T23:53:31;99260;;;13.9;100
44127;BME280;29786;50.798;7.302;2023-05-20T23:58:28;99250;;;13.76;100
